Prachuap Khirikhan, Thailand
Current Conditions -  °F | °C
As of 11:30 PM on Saturday 25 Oct 2014 (Local Time) from VTBU Reporting Station
Broken Clouds Broken Clouds  
Wind Chill: 25°   Ceiling: 30000
Heat Index: 26°   Visibility: 4mi
Dew Point: 24°   Wind: 3mph
Humidity: 94%   Direction: 330°NNW
Pressure: 29.88"   Gusts: NA
Location:  11.83°N, 99.83°E
Report Text: VTBU 251630Z 33003KT 7000 FEW020 SCT120 BKN300 25/24 Q1012 A2990
Loading
Personal Weather Stations






























Interactive Weather Map
Tropical Storm Tracking
New forecast layout! Learn more

10-Day Weather Forecast

Advertisements
Track Severe Weather on mobile